Time;durP1;ratioP1;P1;durP2;ratioP2;P2;SDS_P1;SDS_P2;PMS_P1;PMS_P2;Temp;Humidity;BMP_temperature;BMP_pressure;BME280_temperature;BME280_humidity;BME280_pressure;Samples;Min_cycle;Max_cycle;Signal;HPM_P1;HPM_P2
2022/03/02 00:09:35;;;;;;;19.17;8.83;;;;;;;-0.85;48.19;101538.22;18305042;32;20130;-63
2022/03/02 00:19:40;;;;;;;20.30;8.27;;;;;;;-0.66;48.06;101537.69;18303770;32;20150;-63
2022/03/02 00:29:43;;;;;;;20.80;8.97;;;;;;;-0.58;49.31;101528.78;18306849;32;20149;-63
2022/03/02 00:39:48;;;;;;;19.20;7.50;;;;;;;-0.70;49.07;101528.91;18306384;32;20082;-63
2022/03/02 00:49:51;;;;;;;23.07;10.63;;;;;;;-0.67;50.13;101527.31;18306208;32;20113;-63
2022/03/02 00:59:56;;;;;;;24.03;10.90;;;;;;;-0.84;50.79;101504.97;18305322;32;20113;-63
2022/03/02 01:09:59;;;;;;;23.83;11.87;;;;;;;-1.01;50.78;101498.78;18303337;32;20108;-63
2022/03/02 01:20:05;;;;;;;26.90;13.57;;;;;;;-1.16;52.36;101487.56;18239313;32;20098;-63
2022/03/02 01:30:09;;;;;;;31.37;12.50;;;;;;;-1.35;52.03;101465.91;18239673;32;20098;-63
2022/03/02 01:40:15;;;;;;;27.17;13.10;;;;;;;-1.21;51.62;101455.66;18240738;32;20141;-64
2022/03/02 01:50:18;;;;;;;27.83;13.73;;;;;;;-1.27;52.36;101451.03;18240928;32;20094;-63
2022/03/02 02:00:24;;;;;;;26.80;11.70;;;;;;;-1.28;52.21;101441.56;18240837;32;20109;-63
2022/03/02 02:10:27;;;;;;;25.63;12.37;;;;;;;-1.57;53.44;101438.94;18243151;32;20118;-63
2022/03/02 02:20:36;;;;;;;26.77;12.53;;;;;;;-1.89;53.70;101432.63;18302804;32;20155;-63
2022/03/02 02:30:40;;;;;;;28.87;13.17;;;;;;;-2.06;54.28;101428.09;18302348;32;20107;-63
2022/03/02 02:40:45;;;;;;;23.97;12.43;;;;;;;-2.08;55.46;101434.78;18302031;32;20139;-63
2022/03/02 02:50:48;;;;;;;30.20;13.70;;;;;;;-2.30;55.80;101438.44;18301196;32;20098;-63
2022/03/02 03:00:53;;;;;;;32.10;14.80;;;;;;;-2.46;55.31;101432.31;18301934;32;20108;-63
2022/03/02 03:10:56;;;;;;;26.43;12.43;;;;;;;-2.54;55.88;101428.34;18300044;32;20147;-63
2022/03/02 03:21:00;;;;;;;28.60;13.13;;;;;;;-2.27;56.97;101428.44;18299211;32;20151;-62
2022/03/02 03:31:04;;;;;;;29.10;13.70;;;;;;;-2.54;56.61;101423.25;18306316;32;20074;-63
2022/03/02 03:41:08;;;;;;;26.23;12.47;;;;;;;-2.52;55.12;101416.56;18307929;32;20115;-65
2022/03/02 03:51:12;;;;;;;24.90;11.93;;;;;;;-2.54;56.47;101416.44;18307746;32;20457;-65
2022/03/02 04:01:16;;;;;;;25.60;12.83;;;;;;;-2.42;55.56;101421.50;18307520;32;20379;-63
2022/03/02 04:11:20;;;;;;;24.70;10.77;;;;;;;-2.72;56.53;101426.31;18306931;32;20097;-62
2022/03/02 04:21:24;;;;;;;25.53;11.83;;;;;;;-2.84;56.76;101422.94;18306873;32;20143;-62
2022/03/02 04:31:28;;;;;;;24.97;11.70;;;;;;;-2.87;56.90;101415.03;18306709;32;20097;-62
2022/03/02 04:41:32;;;;;;;26.07;11.20;;;;;;;-3.07;56.92;101415.44;18305491;32;20098;-62
2022/03/02 04:51:35;;;;;;;22.13;10.57;;;;;;;-3.00;57.16;101401.44;18306312;32;20413;-62
2022/03/02 05:01:40;;;;;;;25.40;11.57;;;;;;;-3.25;58.76;101399.72;18305522;32;20378;-62
2022/03/02 05:11:43;;;;;;;26.67;12.23;;;;;;;-3.27;58.08;101391.06;18305284;32;20109;-62
2022/03/02 05:21:48;;;;;;;32.30;16.10;;;;;;;-3.66;59.48;101395.12;18305025;32;20132;-62
2022/03/02 05:31:51;;;;;;;30.43;14.50;;;;;;;-3.40;58.80;101379.09;18304760;32;20094;-62
2022/03/02 05:41:56;;;;;;;32.70;13.87;;;;;;;-3.32;59.69;101384.75;18304635;32;20113;-62
2022/03/02 05:51:59;;;;;;;29.50;12.57;;;;;;;-3.14;59.34;101379.13;18303675;32;20097;-62
2022/03/02 06:02:04;;;;;;;27.13;12.47;;;;;;;-3.43;59.33;101376.34;18304118;32;20094;-63
2022/03/02 06:12:11;;;;;;;25.70;12.23;;;;;;;-3.06;59.89;101380.56;18303255;32;20102;-62
2022/03/02 06:22:17;;;;;;;24.63;11.93;;;;;;;-2.68;58.57;101376.28;18303041;32;20390;-62
2022/03/02 06:32:20;;;;;;;31.63;12.20;;;;;;;-1.55;57.76;101385.25;18301738;32;20089;-63
2022/03/02 06:42:28;;;;;;;25.33;11.13;;;;;;;-0.91;56.55;101371.19;18301245;32;20707;-63
2022/03/02 06:52:35;;;;;;;23.60;10.43;;;;;;;0.19;54.96;101353.50;18299084;32;20098;-62
2022/03/02 07:02:43;;;;;;;22.75;11.85;;;;;;;1.36;51.57;101350.22;18302684;32;20701;-64
2022/03/02 07:12:47;;;;;;;18.27;9.43;;;;;;;2.84;47.73;101342.59;18308471;32;20147;-67
2022/03/02 07:22:53;;;;;;;22.98;11.18;;;;;;;6.08;39.37;101318.53;18308700;32;20120;-67
2022/03/02 07:32:57;;;;;;;19.62;11.27;;;;;;;10.84;31.13;101302.50;18308440;32;20098;-68
2022/03/02 07:43:02;;;;;;;17.77;9.75;;;;;;;12.65;27.56;101296.00;18306803;32;20647;-68
2022/03/02 07:53:07;;;;;;;28.70;14.40;;;;;;;12.75;25.85;101282.91;18306713;32;20366;-68
2022/03/02 08:03:12;;;;;;;21.35;10.85;;;;;;;10.25;29.15;101280.87;18307563;32;20436;-68
2022/03/02 08:13:17;;;;;;;16.52;9.13;;;;;;;7.72;32.02;101282.28;18306559;32;20094;-68
2022/03/02 08:23:23;;;;;;;21.30;9.25;;;;;;;6.93;32.96;101283.78;18306622;32;20343;-68
2022/03/02 08:33:29;;;;;;;22.40;10.77;;;;;;;8.16;32.13;101271.13;18306241;32;20112;-68
2022/03/02 08:43:35;;;;;;;16.65;7.60;;;;;;;9.30;28.29;101256.87;18306010;32;20090;-68
2022/03/02 08:53:40;;;;;;;19.23;7.87;;;;;;;10.00;26.98;101252.69;18305924;32;20094;-68
2022/03/02 09:03:48;;;;;;;19.17;6.40;;;;;;;10.84;25.83;101231.97;18305617;32;20097;-68
2022/03/02 09:13:52;;;;;;;12.73;5.37;;;;;;;9.54;26.65;101224.22;18306160;32;20111;-68
2022/03/02 09:23:58;;;;;;;18.30;5.05;;;;;;;10.61;24.25;101213.44;18304350;32;20113;-69
2022/03/02 09:34:04;;;;;;;13.23;4.97;;;;;;;10.74;23.10;101206.63;18304873;32;20363;-69
2022/03/02 09:44:11;;;;;;;12.27;4.85;;;;;;;15.51;17.59;101180.47;18304766;32;20098;-69
2022/03/02 09:54:15;;;;;;;9.80;4.70;;;;;;;22.26;12.61;101159.84;18304227;32;20108;-69
2022/03/02 10:04:22;;;;;;;11.15;5.00;;;;;;;18.25;14.03;101156.84;18303541;32;20093;-70
2022/03/02 10:14:26;;;;;;;10.45;4.93;;;;;;;17.29;14.79;101146.38;18300835;32;20158;-69
2022/03/02 10:24:31;;;;;;;14.48;5.50;;;;;;;14.19;17.80;101157.78;18298292;32;20097;-69
2022/03/02 10:34:36;;;;;;;9.88;4.43;;;;;;;12.22;18.98;101150.94;18296932;32;20089;-69
2022/03/02 10:44:49;;;;;;;12.02;5.60;;;;;;;11.21;20.64;101133.00;18297688;32;20131;-68
2022/03/02 10:54:54;;;;;;;11.98;5.15;;;;;;;12.57;20.31;101126.59;18297200;32;20108;-68
2022/03/02 11:05:00;;;;;;;12.88;6.30;;;;;;;13.83;18.36;101102.81;18296552;32;20155;-69
2022/03/02 11:15:07;;;;;;;12.65;6.37;;;;;;;15.88;17.01;101079.12;18288457;32;128942;-68
2022/03/02 11:25:12;;;;;;;11.57;5.68;;;;;;;16.90;15.72;101057.41;18296499;32;20093;-68
2022/03/02 11:35:19;;;;;;;11.38;5.30;;;;;;;18.51;14.37;101034.63;18298607;32;20088;-69
2022/03/02 11:45:26;;;;;;;11.85;5.15;;;;;;;17.79;14.92;101024.84;18298868;32;20417;-69
2022/03/02 11:55:33;;;;;;;12.57;5.70;;;;;;;16.82;15.61;101019.75;18307077;32;20107;-69
2022/03/02 12:05:37;;;;;;;13.98;5.07;;;;;;;13.35;19.01;101016.41;18307116;32;20101;-69
2022/03/02 12:15:47;;;;;;;13.55;5.60;;;;;;;12.46;21.11;101005.25;18306770;32;20098;-68
2022/03/02 12:25:54;;;;;;;11.00;5.03;;;;;;;11.90;22.95;100989.47;18304967;32;20115;-68
2022/03/02 12:35:58;;;;;;;12.65;5.05;;;;;;;11.22;23.07;100979.66;18299040;32;20094;-69
2022/03/02 12:46:04;;;;;;;11.80;5.53;;;;;;;11.01;24.21;100977.84;18304647;32;20152;-68
2022/03/02 12:56:08;;;;;;;10.40;4.43;;;;;;;11.56;23.12;100963.22;18304702;32;20090;-68
2022/03/02 13:06:14;;;;;;;9.82;4.15;;;;;;;11.42;23.65;100942.28;18306437;32;20095;-68
2022/03/02 13:16:19;;;;;;;10.38;4.60;;;;;;;11.46;24.59;100929.22;18306008;32;20097;-68
2022/03/02 13:26:24;;;;;;;13.02;5.10;;;;;;;11.48;24.42;100917.03;18304561;32;20192;-68
2022/03/02 13:36:34;;;;;;;13.70;5.45;;;;;;;11.35;24.79;100897.84;18305835;32;20147;-68
2022/03/02 13:46:39;;;;;;;11.27;4.60;;;;;;;11.11;25.00;100882.97;18304675;32;20097;-68
2022/03/02 13:56:43;;;;;;;11.50;5.05;;;;;;;11.55;24.98;100883.03;18304258;32;20151;-68
2022/03/02 14:06:53;;;;;;;11.02;4.87;;;;;;;11.41;25.11;100876.06;18301562;32;20101;-69
2022/03/02 14:16:59;;;;;;;11.98;4.80;;;;;;;11.64;25.18;100870.87;18303623;32;20094;-68
2022/03/02 14:27:07;;;;;;;10.32;4.78;;;;;;;11.74;25.04;100876.97;18297045;32;20402;-68
2022/03/02 14:37:13;;;;;;;11.50;5.00;;;;;;;11.73;25.13;100856.91;18303693;32;20129;-68
2022/03/02 14:47:28;;;;;;;11.73;5.60;;;;;;;11.82;25.31;100848.22;18302065;32;20192;-68
2022/03/02 14:57:31;;;;;;;11.20;5.45;;;;;;;11.37;25.99;100856.00;18301281;32;20089;-68
2022/03/02 15:07:40;;;;;;;11.18;5.43;;;;;;;11.19;25.15;100842.06;18299728;32;20449;-68
2022/03/02 15:17:43;;;;;;;16.23;7.53;;;;;;;11.17;25.59;100837.69;18300175;32;20382;-68
2022/03/02 15:27:57;;;;;;;17.02;7.47;;;;;;;11.29;25.80;100834.22;18307474;32;20094;-68
2022/03/02 15:38:00;;;;;;;15.30;7.50;;;;;;;11.17;25.37;100829.84;18308411;32;20150;-68
2022/03/02 15:48:06;;;;;;;18.58;8.30;;;;;;;10.64;25.77;100816.59;18305186;32;20097;-68
2022/03/02 15:58:11;;;;;;;14.95;7.30;;;;;;;10.55;26.59;100822.66;18305278;32;20090;-68
2022/03/02 16:08:19;;;;;;;15.75;7.57;;;;;;;10.07;27.27;100825.84;18306119;32;20458;-68
2022/03/02 16:18:25;;;;;;;16.50;8.82;;;;;;;9.83;27.99;100813.50;18306518;32;20516;-67
2022/03/02 16:28:37;;;;;;;14.30;7.12;;;;;;;9.24;29.47;100829.50;18299492;32;20112;-67
2022/03/02 16:38:40;;;;;;;;;;;;;;;8.99;29.91;100820.56;18304614;32;20093;-67
2022/03/02 16:48:45;;;;;;;53.33;10.07;;;;;;;8.80;30.75;100829.87;18306196;32;19972;-67
2022/03/02 16:58:50;;;;;;;19.27;7.15;;;;;;;8.23;31.33;100832.56;18307053;32;20125;-67
2022/03/02 17:08:55;;;;;;;19.42;9.40;;;;;;;7.99;31.88;100828.75;18305929;32;20120;-67
2022/03/02 17:18:58;;;;;;;25.83;12.85;;;;;;;7.56;32.70;100823.75;18305322;32;20108;-67
2022/03/02 17:29:03;;;;;;;26.10;11.02;;;;;;;6.98;34.40;100819.25;18305249;32;20121;-67
2022/03/02 17:39:08;;;;;;;33.42;13.55;;;;;;;6.39;35.48;100821.50;18305222;32;20089;-67
2022/03/02 17:49:12;;;;;;;24.20;11.38;;;;;;;5.75;38.48;100826.91;18304217;32;20096;-67
2022/03/02 17:59:16;;;;;;;37.20;16.98;;;;;;;5.13;39.58;100829.69;18303674;32;20097;-67
2022/03/02 18:09:21;;;;;;;21.37;9.20;;;;;;;5.06;39.77;100832.94;18304571;32;20085;-68
2022/03/02 18:19:24;;;;;;;36.97;18.37;;;;;;;4.32;41.83;100836.87;18302757;32;20094;-67
2022/03/02 18:29:30;;;;;;;32.50;17.17;;;;;;;4.11;41.72;100826.75;18302363;32;20097;-67
2022/03/02 18:39:34;;;;;;;14.10;6.72;;;;;;;3.61;42.84;100823.44;18302141;32;20103;-67
2022/03/02 18:49:39;;;;;;;15.77;7.47;;;;;;;3.37;43.71;100831.25;18301091;32;20105;-67
2022/03/02 18:59:42;;;;;;;23.48;12.90;;;;;;;3.65;41.01;100826.13;18304883;32;20094;-67
2022/03/02 19:09:47;;;;;;;46.42;19.95;;;;;;;3.14;43.39;100828.75;18308134;32;20086;-67
2022/03/02 19:19:50;;;;;;;40.78;20.55;;;;;;;2.94;44.41;100814.25;18308789;32;20112;-67
2022/03/02 19:29:55;;;;;;;44.00;21.20;;;;;;;2.71;45.81;100804.88;18304243;32;20101;-68
2022/03/02 19:40:02;;;;;;;60.58;27.75;;;;;;;2.48;46.54;100807.47;18302249;32;20526;-67
2022/03/02 19:50:08;;;;;;;60.95;30.50;;;;;;;2.54;47.61;100798.25;18305407;32;20086;-67
2022/03/02 20:00:14;;;;;;;50.42;24.30;;;;;;;2.43;48.19;100803.88;18302871;32;20160;-67
2022/03/02 20:10:19;;;;;;;45.95;21.30;;;;;;;2.22;48.90;100803.94;18303610;32;20117;-67
2022/03/02 20:20:22;;;;;;;48.15;23.95;;;;;;;2.12;48.92;100799.25;18301590;32;20113;-67
2022/03/02 20:30:27;;;;;;;48.80;22.52;;;;;;;1.93;50.81;100803.66;18301460;32;20172;-67
2022/03/02 20:40:30;;;;;;;49.95;24.50;;;;;;;1.76;51.79;100803.00;18301877;32;20352;-67
2022/03/02 20:50:35;;;;;;;57.62;25.12;;;;;;;1.78;51.21;100804.81;18301932;32;20093;-67
2022/03/02 21:00:41;;;;;;;54.43;26.93;;;;;;;1.70;51.67;100810.47;18304777;32;20090;-67
2022/03/02 21:10:46;;;;;;;154.27;49.33;;;;;;;1.64;51.40;100800.81;18302284;32;20462;-67
2022/03/02 21:20:49;;;;;;;116.10;42.73;;;;;;;1.54;50.24;100802.09;18302196;32;20450;-67
2022/03/02 21:30:55;;;;;;;65.93;28.93;;;;;;;1.16;52.76;100786.84;18303317;32;20113;-67
2022/03/02 21:40:58;;;;;;;41.17;20.73;;;;;;;1.08;51.98;100796.78;18300282;32;20104;-67
2022/03/02 21:51:03;;;;;;;45.17;21.08;;;;;;;0.85;52.75;100810.34;18303178;32;20144;-67
2022/03/02 22:01:06;;;;;;;68.07;31.60;;;;;;;0.84;53.47;100814.59;18299143;32;20097;-67
2022/03/02 22:11:11;;;;;;;75.53;33.60;;;;;;;0.81;52.09;100824.75;18302145;32;20111;-68
2022/03/02 22:21:14;;;;;;;57.17;27.30;;;;;;;0.66;53.19;100810.44;18301861;32;20364;-65
2022/03/02 22:31:19;;;;;;;52.77;24.53;;;;;;;0.62;52.32;100802.50;18301250;32;20247;-66
2022/03/02 22:41:22;;;;;;;39.63;19.37;;;;;;;0.59;52.53;100818.66;18300992;32;20136;-66
2022/03/02 22:51:27;;;;;;;35.77;17.23;;;;;;;0.49;51.89;100806.22;18301108;32;20113;-66
2022/03/02 23:22:10;;;;;;;30.83;15.83;;;;;;;-0.16;53.92;100804.06;18297881;32;20739;-66
2022/03/02 23:32:14;;;;;;;32.90;15.17;;;;;;;-0.24;53.37;100811.41;18297483;32;20433;-66
2022/03/02 23:42:17;;;;;;;27.73;14.47;;;;;;;0.08;52.18;100806.91;18299314;32;20475;-66
2022/03/02 23:52:22;;;;;;;29.37;15.30;;;;;;;-0.50;54.46;100800.75;18305849;32;20793;-67
